Terminal Aerodrome Forecast
Issued by NWS Cleveland, OH

Home | Current Version | Previous Version | Graphics & Text | Print | Product List | Glossary On
Versions: 1 2 3 4 5 6 7 8 9 10 11 12 13 14 15 16 17 18 19 20 21 22 23 24 25 26 27 28 29 30 31 32
000
FTUS41 KCLE 242000 AAA
TAFCLE
TAF AMD
KCLE 242020Z 2420/2524 25012KT 5SM BR OVC012
     FM250600 25008KT 4SM BR VCSH OVC010
     FM251100 02005KT 5SM -SHSN BR OVC008
     FM251400 04006KT 1 1/2SM -SN BR OVC008=

USA.gov is the U.S. government's official web portal to all federal, state and local government web resources and services.